Observation data for Knox City on 11/18/2019      Previous  Date       Current Mesonet Observations  Soil Data  Daily Summary Page  Observations in Plain Language
KKN1 180600Z 22003KT 04/02 A3006 RMK A01 T00420023  RH  089%=      5-min Rain = 0
KKN1 180605Z 22004KT 04/02 A3005 RMK A01 T00430024  RH  089%=      5-min Rain = 0
KKN1 180610Z 22003KT 04/02 A3005 RMK A01 T00440024  RH  088%=      5-min Rain = 0
KKN1 180615Z 22003KT 04/02 A3005 RMK A01 T00440024  RH  088%=      5-min Rain = 0
KKN1 180620Z 22002KT 04/02 A3005 RMK A01 T00430023  RH  088%=      5-min Rain = 0
KKN1 180625Z 22002KT 04/02 A3005 RMK A01 T00420022  RH  089%=      5-min Rain = 0
KKN1 180630Z 22003KT 04/02 A3004 RMK A01 T00400022  RH  090%=      5-min Rain = 0
KKN1 180635Z 22003KT 04/02 A3004 RMK A01 T00390022  RH  090%=      5-min Rain = 0
KKN1 180640Z 22004KT 04/02 A3004 RMK A01 T00390022  RH  090%=      5-min Rain = 0
KKN1 180645Z 22004KT 04/02 A3004 RMK A01 T00390023  RH  090%=      5-min Rain = 0
KKN1 180650Z 22005KT 04/02 A3004 RMK A01 T00390022  RH  090%=      5-min Rain = 0
KKN1 180655Z 22006KT 04/02 A3004 RMK A01 T00390022  RH  090%=      5-min Rain = 0
KKN1 180700Z 22006KT 04/02 A3004 RMK A01 T00400023  RH  090%=      5-min Rain = 0
KKN1 180705Z 22007KT 04/02 A3003 RMK A01 T00410022  RH  089%=      5-min Rain = 0
KKN1 180710Z 22007KT 04/02 A3004 RMK A01 T00440024  RH  088%=      5-min Rain = 0
KKN1 180715Z 22007KT 05/02 A3003 RMK A01 T00470024  RH  087%=      5-min Rain = 0
KKN1 180720Z 22007KT 05/02 A3003 RMK A01 T00470024  RH  086%=      5-min Rain = 0
KKN1 180725Z 22006KT 05/02 A3003 RMK A01 T00470024  RH  087%=      5-min Rain = 0
KKN1 180730Z 23006KT 05/02 A3003 RMK A01 T00470024  RH  087%=      5-min Rain = 0
KKN1 180735Z 22005KT 05/02 A3003 RMK A01 T00460023  RH  087%=      5-min Rain = 0
KKN1 180740Z 23005KT 05/02 A3003 RMK A01 T00450023  RH  087%=      5-min Rain = 0
KKN1 180745Z 23005KT 04/02 A3004 RMK A01 T00440022  RH  087%=      5-min Rain = 0
KKN1 180750Z 23005KT 05/02 A3003 RMK A01 T00460024  RH  087%=      5-min Rain = 0
KKN1 180755Z 23005KT 05/02 A3003 RMK A01 T00460024  RH  087%=      5-min Rain = 0
KKN1 180800Z 23005KT 04/02 A3003 RMK A01 T00440023  RH  087%=      5-min Rain = 0
KKN1 180805Z 22005KT 04/02 A3003 RMK A01 T00430022  RH  088%=      5-min Rain = 0
KKN1 180810Z 22005KT 04/02 A3002 RMK A01 T00420022  RH  089%=      5-min Rain = 0
KKN1 180815Z 21005KT 04/02 A3002 RMK A01 T00400021  RH  089%=      5-min Rain = 0
KKN1 180820Z 21006KT 04/02 A3002 RMK A01 T00380021  RH  090%=      5-min Rain = 0
KKN1 180825Z 21005KT 04/02 A3002 RMK A01 T00390022  RH  090%=      5-min Rain = 0
KKN1 180830Z 21005KT 04/02 A3002 RMK A01 T00390021  RH  090%=      5-min Rain = 0
KKN1 180835Z 21004KT 04/02 A3002 RMK A01 T00390022  RH  090%=      5-min Rain = 0
KKN1 180840Z 21005KT 04/02 A3001 RMK A01 T00380021  RH  090%=      5-min Rain = 0
KKN1 180845Z 22005KT 04/02 A3001 RMK A01 T00360020  RH  091%=      5-min Rain = 0
KKN1 180850Z 22004KT 04/02 A3001 RMK A01 T00360020  RH  091%=      5-min Rain = 0
KKN1 180855Z 22005KT 04/02 A3001 RMK A01 T00350020  RH  091%=      5-min Rain = 0
KKN1 180900Z 22004KT 04/02 A3001 RMK A01 T00360021  RH  091%=      5-min Rain = 0
KKN1 180905Z 22004KT 04/02 A3001 RMK A01 T00370021  RH  091%=      5-min Rain = 0
KKN1 180910Z 22003KT 04/02 A30 RMK A01 T00370020  RH  090%=      5-min Rain = 0
KKN1 180915Z 23004KT 04/02 A30 RMK A01 T00370021  RH  090%=      5-min Rain = 0
KKN1 180920Z 23004KT 04/02 A30 RMK A01 T00400022  RH  089%=      5-min Rain = 0
KKN1 180925Z 23005KT 04/02 A30 RMK A01 T00400019  RH  088%=      5-min Rain = 0
KKN1 180930Z 23005KT 04/02 A30 RMK A01 T00360017  RH  089%=      5-min Rain = 0
KKN1 180935Z 23005KT 03/02 A30 RMK A01 T00340017  RH  090%=      5-min Rain = 0
KKN1 180940Z 23006KT 03/02 A30 RMK A01 T00320016  RH  091%=      5-min Rain = 0
KKN1 180945Z 23006KT 04/02 A30 RMK A01 T00350020  RH  091%=      5-min Rain = 0
KKN1 180950Z 22005KT 04/02 A30 RMK A01 T00400022  RH  089%=      5-min Rain = 0
KKN1 180955Z 22005KT 04/02 A30 RMK A01 T00410021  RH  088%=      5-min Rain = 0
KKN1 181000Z 22005KT 04/02 A30 RMK A01 T00400021  RH  089%=      5-min Rain = 0
KKN1 181005Z 21005KT 04/02 A30 RMK A01 T00400021  RH  089%=      5-min Rain = 0
KKN1 181010Z 21005KT 04/02 A30 RMK A01 T00370020  RH  090%=      5-min Rain = 0
KKN1 181015Z 21006KT 04/02 A30 RMK A01 T00360020  RH  091%=      5-min Rain = 0
KKN1 181020Z 21006KT 04/02 A2999 RMK A01 T00360020  RH  091%=      5-min Rain = 0
KKN1 181025Z 21006KT 04/02 A2999 RMK A01 T00360020  RH  091%=      5-min Rain = 0
KKN1 181030Z 21006KT 04/02 A2999 RMK A01 T00360020  RH  091%=      5-min Rain = 0
KKN1 181035Z 21005KT 03/02 A2999 RMK A01 T00340019  RH  091%=      5-min Rain = 0
KKN1 181040Z 21005KT 03/02 A2999 RMK A01 T00330019  RH  092%=      5-min Rain = 0
KKN1 181045Z 21005KT 03/02 A2999 RMK A01 T00320018  RH  092%=      5-min Rain = 0
KKN1 181050Z 21005KT 03/02 A2998 RMK A01 T00310018  RH  093%=      5-min Rain = 0
KKN1 181055Z 21005KT 03/02 A2998 RMK A01 T00300018  RH  093%=      5-min Rain = 0
KKN1 181100Z 21005KT 03/02 A2998 RMK A01 T00300018  RH  093%=      5-min Rain = 0
KKN1 181105Z 21005KT 03/02 A2998 RMK A01 T00290017  RH  093%=      5-min Rain = 0
KKN1 181110Z 21004KT 03/02 A2998 RMK A01 T00280016  RH  093%=      5-min Rain = 0
KKN1 181115Z 21003KT 03/02 A2998 RMK A01 T00270016  RH  094%=      5-min Rain = 0
KKN1 181120Z 21001KT 03/02 A2998 RMK A01 T00260015  RH  094%=      5-min Rain = 0
KKN1 181125Z 00000KT 02/01 A2999 RMK A01 T00240013  RH  094%=      5-min Rain = 0
KKN1 181130Z 22002KT 03/01 A2999 RMK A01 T00250014  RH  094%=      5-min Rain = 0
KKN1 181135Z 22003KT 03/02 A2999 RMK A01 T00250015  RH  094%=      5-min Rain = 0
KKN1 181140Z 22003KT 03/02 A2999 RMK A01 T00250015  RH  094%=      5-min Rain = 0
KKN1 181145Z 22002KT 03/02 A2999 RMK A01 T00250015  RH  094%=      5-min Rain = 0
KKN1 181150Z 22002KT 03/02 A2999 RMK A01 T00250015  RH  094%=      5-min Rain = 0
KKN1 181155Z 22001KT 03/01 A2999 RMK A01 T00250014  RH  094%=      5-min Rain = 0
KKN1 181200Z 24001KT 02/01 A2999 RMK A01 T00240013  RH  094%=      5-min Rain = 0
KKN1 181205Z 25001KT 02/01 A2999 RMK A01 T00230013  RH  094%=      5-min Rain = 0
KKN1 181210Z 25001KT 02/01 A2999 RMK A01 T00230013  RH  094%=      5-min Rain = 0
KKN1 181215Z 24002KT 02/01 A2999 RMK A01 T00230013  RH  094%=      5-min Rain = 0
KKN1 181220Z 22003KT 02/01 A2999 RMK A01 T00230013  RH  095%=      5-min Rain = 0
KKN1 181225Z 22003KT 02/01 A2999 RMK A01 T00230013  RH  095%=      5-min Rain = 0
KKN1 181230Z 22004KT 02/01 A2999 RMK A01 T00210011  RH  094%=      5-min Rain = 0
KKN1 181235Z 22004KT 02/01 A2999 RMK A01 T00200011  RH  095%=      5-min Rain = 0
KKN1 181240Z 22004KT 02/01 A2999 RMK A01 T00210012  RH  095%=      5-min Rain = 0
KKN1 181245Z 22005KT 02/01 A2999 RMK A01 T00220013  RH  095%=      5-min Rain = 0
KKN1 181250Z 21005KT 02/02 A2999 RMK A01 T00240015  RH  095%=      5-min Rain = 0
KKN1 181255Z 20005KT 03/02 A2999 RMK A01 T00280018  RH  095%=      5-min Rain = 0
KKN1 181300Z 20006KT 03/02 A2999 RMK A01 T00280018  RH  094%=      5-min Rain = 0
KKN1 181305Z 20006KT 03/02 A2999 RMK A01 T00280018  RH  094%=      5-min Rain = 0
KKN1 181310Z 20006KT 03/02 A2999 RMK A01 T00280017  RH  094%=      5-min Rain = 0
KKN1 181315Z 20006KT 03/02 A2999 RMK A01 T00280017  RH  094%=      5-min Rain = 0
KKN1 181320Z 20005KT 03/02 A2999 RMK A01 T00300018  RH  093%=      5-min Rain = 0
KKN1 181325Z 21006KT 03/02 A30 RMK A01 T00300018  RH  093%=      5-min Rain = 0
KKN1 181330Z 20005KT 03/02 A30 RMK A01 T00320019  RH  093%=      5-min Rain = 0
KKN1 181335Z 20003KT 03/02 A30 RMK A01 T00330019  RH  092%=      5-min Rain = 0
KKN1 181340Z 20003KT 03/02 A30 RMK A01 T00340021  RH  092%=      5-min Rain = 0
KKN1 181345Z 19002KT 04/02 A30 RMK A01 T00370023  RH  092%=      5-min Rain = 0
KKN1 181350Z 21002KT 04/02 A30 RMK A01 T00390024  RH  091%=      5-min Rain = 0
KKN1 181355Z 22004KT 04/03 A30 RMK A01 T00410025  RH  091%=      5-min Rain = 0
KKN1 181400Z 20004KT 04/03 A30 RMK A01 T00440026  RH  090%=      5-min Rain = 0
KKN1 181405Z 21003KT 05/03 A30 RMK A01 T00470028  RH  089%=      5-min Rain = 0
KKN1 181410Z 21004KT 05/03 A30 RMK A01 T00500030  RH  088%=      5-min Rain = 0
KKN1 181415Z 21004KT 05/03 A30 RMK A01 T00540033  RH  088%=      5-min Rain = 0
KKN1 181420Z 20005KT 06/04 A30 RMK A01 T00580036  RH  087%=      5-min Rain = 0
KKN1 181425Z 20006KT 06/04 A2999 RMK A01 T00630039  RH  087%=      5-min Rain = 0
KKN1 181430Z 20005KT 07/04 A2999 RMK A01 T00700043  RH  085%=      5-min Rain = 0
KKN1 181435Z 21006KT 08/05 A2999 RMK A01 T00760045  RH  082%=      5-min Rain = 0
KKN1 181440Z 22005KT 08/05 A2999 RMK A01 T00820047  RH  080%=      5-min Rain = 0
KKN1 181445Z 23005KT 09/05 A2999 RMK A01 T00860047  RH  078%=      5-min Rain = 0
KKN1 181450Z 23006KT 09/05 A30 RMK A01 T00880045  RH  076%=      5-min Rain = 0
KKN1 181455Z 23006KT 09/05 A2999 RMK A01 T00900045  RH  075%=      5-min Rain = 0
KKN1 181500Z 24005KT 09/05 A2999 RMK A01 T00890045  RH  076%=      5-min Rain = 0
KKN1 181505Z 25004KT 09/05 A2999 RMK A01 T00910048  RH  076%=      5-min Rain = 0
KKN1 181510Z 25006KT 09/05 A2999 RMK A01 T00940047  RH  074%=      5-min Rain = 0
KKN1 181515Z 25006KT 10/05 A2999 RMK A01 T00970045  RH  071%=      5-min Rain = 0
KKN1 181520Z 23007KT 10/04 A2999 RMK A01 T00990043  RH  069%=      5-min Rain = 0
KKN1 181525Z 24006KT 10/05 A2999 RMK A01 T01020046  RH  069%=      5-min Rain = 0
KKN1 181530Z 23006KT 11/05 A2998 RMK A01 T01060046  RH  068%=      5-min Rain = 0
KKN1 181535Z 22007KT 11/05 A2998 RMK A01 T01100046  RH  066%=      5-min Rain = 0
KKN1 181540Z 22006KT 11/05 A2999 RMK A01 T01120045  RH  065%=      5-min Rain = 0
KKN1 181545Z 23005KT 11/05 A2999 RMK A01 T01140045  RH  064%=      5-min Rain = 0
KKN1 181550Z 22004KT 12/05 A2999 RMK A01 T01170047  RH  064%=      5-min Rain = 0
KKN1 181555Z 23005KT 12/05 A30 RMK A01 T01220047  RH  062%=      5-min Rain = 0
KKN1 181600Z 24005KT 13/05 A30 RMK A01 T01280049  RH  060%=      5-min Rain = 0
KKN1 181605Z 24004KT 13/05 A30 RMK A01 T01310050  RH  059%=      5-min Rain = 0
KKN1 181610Z 23006KT 13/05 A2999 RMK A01 T01340050  RH  058%=      5-min Rain = 0
KKN1 181615Z 23008KT 14/05 A2999 RMK A01 T01380050  RH  056%=      5-min Rain = 0
KKN1 181620Z 23006KT 14/05 A2999 RMK A01 T01410051  RH  056%=      5-min Rain = 0
KKN1 181625Z 23006KT 15/05 A2998 RMK A01 T01450052  RH  055%=      5-min Rain = 0
KKN1 181630Z 22006KT 15/05 A2998 RMK A01 T01530053  RH  052%=      5-min Rain = 0
KKN1 181635Z 22009KT 16/05 A2998 RMK A01 T01600049  RH  049%=      5-min Rain = 0
KKN1 181640Z 22012G17KT 17/05 A2998 RMK A01 T01660045  RH  045%=      5-min Rain = 0
KKN1 181645Z 22013KT 17/04 A2998 RMK A01 T01670043  RH  045%=      5-min Rain = 0
KKN1 181650Z 22011KT 17/05 A2997 RMK A01 T01710045  RH  044%=      5-min Rain = 0
KKN1 181655Z 21012KT 17/05 A2997 RMK A01 T01720047  RH  044%=      5-min Rain = 0
KKN1 181700Z 22012KT 17/05 A2997 RMK A01 T01720047  RH  044%=      5-min Rain = 0
KKN1 181705Z 22011KT 18/05 A2997 RMK A01 T01750047  RH  044%=      5-min Rain = 0
KKN1 181710Z 22011KT 18/05 A2997 RMK A01 T01780047  RH  043%=      5-min Rain = 0
KKN1 181715Z 23012KT 18/05 A2997 RMK A01 T01810046  RH  042%=      5-min Rain = 0
KKN1 181720Z 23010KT 18/05 A2997 RMK A01 T01830046  RH  041%=      5-min Rain = 0
KKN1 181725Z 23010G15KT 19/05 A2996 RMK A01 T01860046  RH  040%=      5-min Rain = 0
KKN1 181730Z 22011KT 19/05 A2996 RMK A01 T01890046  RH  040%=      5-min Rain = 0
KKN1 181735Z 23011KT 19/05 A2996 RMK A01 T01910046  RH  039%=      5-min Rain = 0
KKN1 181740Z 22011KT 19/05 A2996 RMK A01 T01920046  RH  039%=      5-min Rain = 0
KKN1 181745Z 22012KT 19/05 A2995 RMK A01 T01940046  RH  038%=      5-min Rain = 0
KKN1 181750Z 22012KT 20/05 A2994 RMK A01 T01980047  RH  038%=      5-min Rain = 0
KKN1 181755Z 21012KT 20/05 A2994 RMK A01 T01990047  RH  038%=      5-min Rain = 0
KKN1 181800Z 22010KT 20/05 A2994 RMK A01 T02010046  RH  037%=      5-min Rain = 0
KKN1 181805Z 22010KT 20/05 A2994 RMK A01 T02020045  RH  036%=      5-min Rain = 0
KKN1 181810Z 22010G15KT 20/05 A2994 RMK A01 T02010045  RH  037%=      5-min Rain = 0
KKN1 181815Z 21010G16KT 21/05 A2994 RMK A01 T02070046  RH  035%=      5-min Rain = 0
KKN1 181820Z 21010KT 21/05 A2993 RMK A01 T02070045  RH  035%=      5-min Rain = 0
KKN1 181825Z 22010G15KT 21/05 A2993 RMK A01 T02070045  RH  035%=      5-min Rain = 0
KKN1 181830Z 22010G15KT 21/04 A2992 RMK A01 T02070043  RH  035%=      5-min Rain = 0
KKN1 181835Z 22009KT 21/04 A2992 RMK A01 T02080044  RH  035%=      5-min Rain = 0
KKN1 181840Z 22008KT 21/04 A2992 RMK A01 T02120044  RH  034%=      5-min Rain = 0
KKN1 181845Z 22009KT 22/04 A2991 RMK A01 T02150044  RH  033%=      5-min Rain = 0
KKN1 181850Z 22011KT 21/04 A2991 RMK A01 T02140044  RH  033%=      5-min Rain = 0
KKN1 181855Z 22008G13KT 22/05 A299 RMK A01 T02180045  RH  033%=      5-min Rain = 0
KKN1 181900Z 21010KT 22/05 A299 RMK A01 T02170045  RH  033%=      5-min Rain = 0
KKN1 181905Z 22010KT 22/05 A299 RMK A01 T02160045  RH  033%=      5-min Rain = 0
KKN1 181910Z 21009KT 22/05 A299 RMK A01 T02150045  RH  033%=      5-min Rain = 0
KKN1 181915Z 21009G14KT 22/05 A2989 RMK A01 T02170045  RH  033%=      5-min Rain = 0
KKN1 181920Z 23008G13KT 22/05 A2989 RMK A01 T02190046  RH  033%=      5-min Rain = 0
KKN1 181925Z 21008KT 22/05 A2989 RMK A01 T02190045  RH  033%=      5-min Rain = 0
KKN1 181930Z 19009KT 22/05 A2988 RMK A01 T02200045  RH  033%=      5-min Rain = 0
KKN1 181935Z 22008G13KT 22/04 A2988 RMK A01 T02190044  RH  033%=      5-min Rain = 0
KKN1 181940Z 21009KT 22/05 A2988 RMK A01 T02210045  RH  032%=      5-min Rain = 0
KKN1 181945Z 22008KT 22/05 A2988 RMK A01 T02220045  RH  032%=      5-min Rain = 0
KKN1 181950Z 23008KT 22/04 A2988 RMK A01 T02240043  RH  031%=      5-min Rain = 0
KKN1 181955Z 22007KT 22/04 A2987 RMK A01 T02240044  RH  031%=      5-min Rain = 0
KKN1 182000Z 22007KT 23/04 A2987 RMK A01 T02270044  RH  031%=      5-min Rain = 0
KKN1 182005Z 20008KT 23/04 A2986 RMK A01 T02270044  RH  031%=      5-min Rain = 0
KKN1 182010Z 21007G12KT 23/05 A2986 RMK A01 T02290046  RH  031%=      5-min Rain = 0
KKN1 182015Z 22007KT 23/04 A2986 RMK A01 T02300044  RH  030%=      5-min Rain = 0
KKN1 182020Z 22009KT 23/05 A2986 RMK A01 T02280045  RH  031%=      5-min Rain = 0
KKN1 182025Z 20009KT 23/05 A2986 RMK A01 T02300046  RH  031%=      5-min Rain = 0
KKN1 182030Z 21009KT 23/04 A2985 RMK A01 T02290044  RH  031%=      5-min Rain = 0
KKN1 182035Z 20009KT 23/05 A2985 RMK A01 T02310045  RH  030%=      5-min Rain = 0
KKN1 182040Z 20009KT 23/04 A2985 RMK A01 T02300044  RH  030%=      5-min Rain = 0
KKN1 182045Z 21006KT 23/04 A2985 RMK A01 T02310044  RH  030%=      5-min Rain = 0
KKN1 182050Z 20008KT 23/04 A2985 RMK A01 T02320042  RH  029%=      5-min Rain = 0
KKN1 182055Z 23004KT 24/04 A2985 RMK A01 T02360043  RH  029%=      5-min Rain = 0
KKN1 182100Z 22004KT 24/04 A2985 RMK A01 T02360042  RH  029%=      5-min Rain = 0
KKN1 182105Z 21005KT 24/04 A2985 RMK A01 T02360042  RH  029%=      5-min Rain = 0
KKN1 182110Z 20005KT 24/04 A2985 RMK A01 T02370039  RH  028%=      5-min Rain = 0
KKN1 182115Z 19007KT 24/04 A2985 RMK A01 T02380039  RH  028%=      5-min Rain = 0
KKN1 182120Z 20006KT 24/04 A2986 RMK A01 T02370038  RH  028%=      5-min Rain = 0
KKN1 182125Z 21005KT 24/04 A2986 RMK A01 T02360040  RH  028%=      5-min Rain = 0
KKN1 182130Z 22005KT 24/04 A2986 RMK A01 T02380041  RH  028%=      5-min Rain = 0
KKN1 182135Z 22005KT 24/04 A2986 RMK A01 T02400041  RH  028%=      5-min Rain = 0
KKN1 182140Z 24005KT 24/04 A2986 RMK A01 T02400038  RH  027%=      5-min Rain = 0
KKN1 182145Z 25005KT 24/03 A2986 RMK A01 T02420034  RH  026%=      5-min Rain = 0
KKN1 182150Z 21006KT 24/03 A2986 RMK A01 T02400034  RH  027%=      5-min Rain = 0
KKN1 182155Z 21006KT 24/04 A2986 RMK A01 T02390036  RH  027%=      5-min Rain = 0
KKN1 182200Z 22005KT 24/04 A2985 RMK A01 T02390036  RH  027%=      5-min Rain = 0
KKN1 182205Z 21005KT 24/04 A2985 RMK A01 T02400036  RH  027%=      5-min Rain = 0
KKN1 182210Z 23006KT 24/04 A2985 RMK A01 T02400036  RH  027%=      5-min Rain = 0
KKN1 182215Z 22007KT 24/04 A2985 RMK A01 T02390037  RH  027%=      5-min Rain = 0
KKN1 182220Z 21006KT 24/04 A2985 RMK A01 T02380038  RH  028%=      5-min Rain = 0
KKN1 182225Z 21006KT 24/04 A2986 RMK A01 T02370039  RH  028%=      5-min Rain = 0
KKN1 182230Z 21006KT 24/04 A2985 RMK A01 T02360040  RH  028%=      5-min Rain = 0
KKN1 182235Z 21006KT 24/04 A2985 RMK A01 T02360041  RH  029%=      5-min Rain = 0
KKN1 182240Z 21005KT 24/04 A2985 RMK A01 T02360043  RH  029%=      5-min Rain = 0
KKN1 182245Z 22004KT 24/04 A2986 RMK A01 T02350042  RH  029%=      5-min Rain = 0
KKN1 182250Z 22004KT 23/04 A2986 RMK A01 T02330041  RH  029%=      5-min Rain = 0
KKN1 182255Z 22004KT 23/04 A2986 RMK A01 T02310042  RH  030%=      5-min Rain = 0
KKN1 182300Z 21003KT 23/04 A2986 RMK A01 T02300043  RH  030%=      5-min Rain = 0
KKN1 182305Z 21003KT 23/04 A2986 RMK A01 T02280044  RH  031%=      5-min Rain = 0
KKN1 182310Z 21003KT 23/05 A2986 RMK A01 T02260045  RH  032%=      5-min Rain = 0
KKN1 182315Z 21003KT 22/05 A2986 RMK A01 T02200047  RH  033%=      5-min Rain = 0
KKN1 182320Z 21003KT 22/05 A2986 RMK A01 T02160052  RH  035%=      5-min Rain = 0
KKN1 182325Z 21002KT 21/05 A2986 RMK A01 T02110054  RH  037%=      5-min Rain = 0
KKN1 182330Z 21001KT 20/05 A2987 RMK A01 T02030051  RH  038%=      5-min Rain = 0
KKN1 182335Z 21000KT 20/05 A2987 RMK A01 T01990046  RH  037%=      5-min Rain = 0
KKN1 182340Z 17001KT 20/04 A2987 RMK A01 T01950044  RH  038%=      5-min Rain = 0
KKN1 182345Z 13003KT 19/04 A2987 RMK A01 T01920042  RH  038%=      5-min Rain = 0
KKN1 182350Z 12003KT 18/04 A2987 RMK A01 T01800044  RH  041%=      5-min Rain = 0
KKN1 182355Z 12003KT 17/04 A2987 RMK A01 T01680044  RH  045%=      5-min Rain = 0
KKN1 190000Z 11004KT 16/05 A2988 RMK A01 T01600045  RH  047%=      5-min Rain = 0
KKN1 190005Z 11004KT 15/05 A2988 RMK A01 T01530045  RH  050%=      5-min Rain = 0
KKN1 190010Z 11005KT 15/04 A2988 RMK A01 T01530043  RH  049%=      5-min Rain = 0
KKN1 190015Z 11004KT 16/04 A2988 RMK A01 T01560042  RH  048%=      5-min Rain = 0
KKN1 190020Z 11004KT 15/05 A2989 RMK A01 T01500049  RH  052%=      5-min Rain = 0
KKN1 190025Z 11005KT 14/05 A2989 RMK A01 T01410051  RH  056%=      5-min Rain = 0
KKN1 190030Z 13005KT 14/05 A2989 RMK A01 T01380050  RH  057%=      5-min Rain = 0
KKN1 190035Z 13005KT 14/05 A2989 RMK A01 T01380048  RH  056%=      5-min Rain = 0
KKN1 190040Z 14005KT 14/05 A2989 RMK A01 T01360048  RH  056%=      5-min Rain = 0
KKN1 190045Z 14006KT 13/05 A2989 RMK A01 T01320050  RH  059%=      5-min Rain = 0
KKN1 190050Z 15007KT 13/05 A2989 RMK A01 T01270051  RH  061%=      5-min Rain = 0
KKN1 190055Z 15007KT 13/05 A2989 RMK A01 T01280048  RH  059%=      5-min Rain = 0
KKN1 190100Z 15006KT 13/05 A2989 RMK A01 T01310049  RH  059%=      5-min Rain = 0
KKN1 190105Z 15006KT 13/05 A299 RMK A01 T01280050  RH  060%=      5-min Rain = 0
KKN1 190110Z 15006KT 13/05 A299 RMK A01 T01270050  RH  061%=      5-min Rain = 0
KKN1 190115Z 15007KT 12/05 A299 RMK A01 T01240048  RH  061%=      5-min Rain = 0
KKN1 190120Z 15006KT 12/05 A299 RMK A01 T01230047  RH  061%=      5-min Rain = 0
KKN1 190125Z 15006KT 12/05 A299 RMK A01 T01220047  RH  061%=      5-min Rain = 0
KKN1 190130Z 16006KT 12/05 A299 RMK A01 T01230046  RH  061%=      5-min Rain = 0
KKN1 190135Z 17007KT 12/05 A299 RMK A01 T01170049  RH  065%=      5-min Rain = 0
KKN1 190140Z 18008KT 12/05 A299 RMK A01 T01160048  RH  064%=      5-min Rain = 0
KKN1 190145Z 18007KT 12/04 A2991 RMK A01 T01170043  RH  061%=      5-min Rain = 0
KKN1 190150Z 18005KT 12/04 A2991 RMK A01 T01150041  RH  062%=      5-min Rain = 0
KKN1 190155Z 19003KT 12/04 A2991 RMK A01 T01150040  RH  061%=      5-min Rain = 0
KKN1 190200Z 21003KT 12/04 A2991 RMK A01 T01190040  RH  059%=      5-min Rain = 0
KKN1 190205Z 23003KT 11/04 A2991 RMK A01 T01100040  RH  063%=      5-min Rain = 0
KKN1 190210Z 22004KT 11/04 A2992 RMK A01 T01110042  RH  064%=      5-min Rain = 0
KKN1 190215Z 22005KT 11/04 A2992 RMK A01 T01070043  RH  066%=      5-min Rain = 0
KKN1 190220Z 22006KT 11/04 A2992 RMK A01 T01060044  RH  067%=      5-min Rain = 0
KKN1 190225Z 22006KT 11/04 A2992 RMK A01 T01070043  RH  066%=      5-min Rain = 0
KKN1 190230Z 22005KT 11/04 A2992 RMK A01 T01060043  RH  066%=      5-min Rain = 0
KKN1 190235Z 21004KT 10/04 A2992 RMK A01 T01030044  RH  068%=      5-min Rain = 0
KKN1 190240Z 21004KT 10/05 A2992 RMK A01 T01020045  RH  069%=      5-min Rain = 0
KKN1 190245Z 21005KT 10/05 A2992 RMK A01 T01030045  RH  069%=      5-min Rain = 0
KKN1 190250Z 21006KT 10/05 A2992 RMK A01 T01000045  RH  070%=      5-min Rain = 0
KKN1 190255Z 21005KT 10/04 A2992 RMK A01 T00970042  RH  070%=      5-min Rain = 0
KKN1 190300Z 21005KT 10/04 A2991 RMK A01 T00990042  RH  069%=      5-min Rain = 0
KKN1 190305Z 21004KT 10/04 A2991 RMK A01 T01030042  RH  067%=      5-min Rain = 0
KKN1 190310Z 22003KT 11/04 A2992 RMK A01 T01070042  RH  065%=      5-min Rain = 0
KKN1 190315Z 22003KT 11/04 A2992 RMK A01 T01050041  RH  066%=      5-min Rain = 0
KKN1 190320Z 24004KT 10/04 A2992 RMK A01 T01030041  RH  067%=      5-min Rain = 0
KKN1 190325Z 24004KT 11/04 A2992 RMK A01 T01060041  RH  066%=      5-min Rain = 0
KKN1 190330Z 25004KT 11/04 A2992 RMK A01 T01120041  RH  063%=      5-min Rain = 0
KKN1 190335Z 25003KT 11/04 A2992 RMK A01 T01100040  RH  063%=      5-min Rain = 0
KKN1 190340Z 25003KT 10/04 A2992 RMK A01 T01040040  RH  066%=      5-min Rain = 0
KKN1 190345Z 24004KT 10/04 A2993 RMK A01 T00960042  RH  070%=      5-min Rain = 0
KKN1 190350Z 24005KT 09/04 A2993 RMK A01 T00920042  RH  072%=      5-min Rain = 0
KKN1 190355Z 24005KT 09/04 A2993 RMK A01 T00940039  RH  070%=      5-min Rain = 0
KKN1 190400Z 24005KT 09/04 A2993 RMK A01 T00920038  RH  070%=      5-min Rain = 0
KKN1 190405Z 25006KT 10/04 A2993 RMK A01 T00970040  RH  069%=      5-min Rain = 0
KKN1 190410Z 25005KT 10/04 A2993 RMK A01 T01010039  RH  067%=      5-min Rain = 0
KKN1 190415Z 24004KT 10/04 A2993 RMK A01 T00950039  RH  069%=      5-min Rain = 0
KKN1 190420Z 24003KT 09/04 A2993 RMK A01 T00900040  RH  072%=      5-min Rain = 0
KKN1 190425Z 22003KT 09/04 A2993 RMK A01 T00870041  RH  074%=      5-min Rain = 0
KKN1 190430Z 22003KT 09/04 A2993 RMK A01 T00850041  RH  075%=      5-min Rain = 0
KKN1 190435Z 23005KT 08/04 A2993 RMK A01 T00790040  RH  078%=      5-min Rain = 0
KKN1 190440Z 23005KT 08/04 A2993 RMK A01 T00790040  RH  078%=      5-min Rain = 0
KKN1 190445Z 23005KT 08/04 A2993 RMK A01 T00790040  RH  078%=      5-min Rain = 0
KKN1 190450Z 23005KT 08/04 A2993 RMK A01 T00780040  RH  078%=      5-min Rain = 0
KKN1 190455Z 23005KT 08/04 A2993 RMK A01 T00770039  RH  079%=      5-min Rain = 0
KKN1 190500Z 23004KT 08/04 A2993 RMK A01 T00770041  RH  079%=      5-min Rain = 0
KKN1 190505Z 23005KT 08/04 A2993 RMK A01 T00770041  RH  079%=      5-min Rain = 0
KKN1 190510Z 23004KT 08/04 A2993 RMK A01 T00770040  RH  079%=      5-min Rain = 0
KKN1 190515Z 23004KT 08/04 A2993 RMK A01 T00780039  RH  078%=      5-min Rain = 0
KKN1 190520Z 23003KT 08/04 A2993 RMK A01 T00760038  RH  078%=      5-min Rain = 0
KKN1 190525Z 23003KT 08/04 A2993 RMK A01 T00760038  RH  079%=      5-min Rain = 0
KKN1 190530Z 23003KT 08/04 A2994 RMK A01 T00750037  RH  078%=      5-min Rain = 0
KKN1 190535Z 23003KT 07/04 A2994 RMK A01 T00740038  RH  080%=      5-min Rain = 0
KKN1 190540Z 23003KT 07/04 A2994 RMK A01 T00730038  RH  080%=      5-min Rain = 0
KKN1 190545Z 23003KT 07/04 A2994 RMK A01 T00730039  RH  081%=      5-min Rain = 0
KKN1 190550Z 23003KT 07/04 A2994 RMK A01 T00740039  RH  080%=      5-min Rain = 0
KKN1 190555Z 23004KT 08/04 A2993 RMK A01 T00750038  RH  079%=      5-min Rain = 0

Page generated in 0.0092 seconds.